Time;durP1;ratioP1;P1;durP2;ratioP2;P2;SDS_P1;SDS_P2;PMS_P1;PMS_P2;Temp;Humidity;BMP_temperature;BMP_pressure;BME280_temperature;BME280_humidity;BME280_pressure;Samples;Min_cycle;Max_cycle;Signal;HPM_P1;HPM_P2
2021/08/20 00:00:13;;;;;;;11.98;8.00;;;15.50;99.90;;;;;;5051127;28;20033;-72
2021/08/20 00:02:39;;;;;;;11.70;8.05;;;15.60;99.90;;;;;;5050874;28;20531;-73
2021/08/20 00:05:06;;;;;;;11.88;7.22;;;15.60;99.90;;;;;;5051483;28;20025;-74
2021/08/20 00:07:32;;;;;;;12.00;8.45;;;15.60;99.90;;;;;;5051076;28;20048;-73
2021/08/20 00:09:59;;;;;;;12.77;8.27;;;15.60;99.90;;;;;;5052001;28;20033;-75
2021/08/20 00:12:24;;;;;;;14.20;8.02;;;15.60;99.90;;;;;;5052869;28;20045;-77
2021/08/20 00:14:51;;;;;;;12.80;8.52;;;15.60;99.90;;;;;;5067204;28;20032;-76
2021/08/20 00:17:16;;;;;;;17.00;8.98;;;15.70;99.90;;;;;;5085045;28;20035;-76
2021/08/20 00:19:42;;;;;;;16.55;8.23;;;15.70;99.90;;;;;;5070601;28;20033;-77
2021/08/20 00:22:09;;;;;;;11.93;7.85;;;15.70;99.90;;;;;;5070057;28;20013;-73
2021/08/20 00:24:36;;;;;;;17.08;8.38;;;15.70;99.90;;;;;;5070780;28;20025;-75
2021/08/20 00:27:02;;;;;;;12.82;8.18;;;15.70;99.90;;;;;;5069794;28;20037;-79
2021/08/20 00:29:28;;;;;;;19.87;9.17;;;15.70;99.90;;;;;;5074908;28;20031;-74
2021/08/20 00:31:54;;;;;;;14.38;8.68;;;15.70;99.90;;;;;;5073433;28;20029;-72
2021/08/20 00:34:20;;;;;;;12.18;8.48;;;15.70;99.90;;;;;;5074924;28;20036;-73
2021/08/20 00:36:46;;;;;;;14.80;8.52;;;15.80;99.90;;;;;;5075982;28;20124;-75
2021/08/20 00:39:12;;;;;;;17.80;10.10;;;15.80;99.90;;;;;;5074245;28;20037;-75
2021/08/20 00:41:41;;;;;;;14.02;8.70;;;15.90;99.90;;;;;;5076003;28;20059;-74
2021/08/20 00:44:07;;;;;;;17.85;10.02;;;15.90;99.90;;;;;;5078031;28;20068;-74
2021/08/20 00:46:33;;;;;;;15.93;9.90;;;15.90;99.90;;;;;;5077044;28;20036;-78
2021/08/20 00:48:58;;;;;;;13.00;9.50;;;15.80;99.90;;;;;;5075892;28;20037;-76
2021/08/20 00:51:27;;;;;;;16.80;11.20;;;15.80;99.90;;;;;;5076251;28;20016;-76
2021/08/20 00:53:54;;;;;;;16.08;10.48;;;15.80;99.90;;;;;;5064732;28;20021;-73
2021/08/20 00:56:20;;;;;;;17.42;10.25;;;15.80;99.90;;;;;;5059739;28;20044;-76
2021/08/20 00:58:47;;;;;;;16.33;10.43;;;15.80;99.90;;;;;;5056508;28;20469;-73
2021/08/20 01:01:13;;;;;;;15.45;10.57;;;15.80;99.90;;;;;;5058885;28;20032;-72
2021/08/20 01:03:38;;;;;;;16.30;11.02;;;15.80;99.90;;;;;;5057525;28;20397;-75
2021/08/20 01:06:06;;;;;;;17.23;10.32;;;15.80;99.90;;;;;;5058904;28;20477;-76
2021/08/20 01:08:33;;;;;;;18.80;10.18;;;15.80;99.90;;;;;;5054333;28;20044;-75
2021/08/20 01:11:01;;;;;;;13.07;8.77;;;15.80;99.90;;;;;;5069868;28;20032;-74
2021/08/20 01:13:30;;;;;;;16.95;10.25;;;15.80;99.90;;;;;;5056415;28;20333;-76
2021/08/20 01:15:56;;;;;;;17.17;11.00;;;15.80;99.90;;;;;;5055521;28;20017;-76
2021/08/20 01:18:30;;;;;;;21.10;10.65;;;15.80;99.90;;;;;;5054251;28;20037;-77
2021/08/20 01:20:58;;;;;;;17.73;11.20;;;15.80;99.90;;;;;;5053754;28;20051;-74
2021/08/20 01:23:25;;;;;;;15.43;10.98;;;15.80;99.90;;;;;;5055258;28;20533;-75
2021/08/20 01:25:51;;;;;;;17.33;11.03;;;15.80;99.90;;;;;;5053524;28;20031;-75
2021/08/20 01:28:17;;;;;;;17.42;10.93;;;15.80;99.90;;;;;;5053818;28;20291;-73
2021/08/20 01:30:42;;;;;;;22.25;12.23;;;15.90;99.90;;;;;;5053573;28;20048;-73
2021/08/20 01:33:08;;;;;;;23.05;11.82;;;15.80;99.90;;;;;;5054099;28;20025;-74
2021/08/20 01:35:35;;;;;;;20.83;11.77;;;15.90;99.90;;;;;;5053265;28;20041;-73
2021/08/20 01:38:01;;;;;;;17.20;11.25;;;15.80;99.90;;;;;;5053939;28;20091;-76
2021/08/20 01:40:27;;;;;;;19.33;11.15;;;15.80;99.90;;;;;;5053692;28;20037;-76
2021/08/20 01:42:53;;;;;;;19.60;12.55;;;15.80;99.90;;;;;;5053749;28;20025;-76
2021/08/20 01:45:20;;;;;;;16.77;11.32;;;15.80;99.90;;;;;;5054591;28;20025;-75
2021/08/20 01:47:45;;;;;;;23.27;11.77;;;15.80;99.90;;;;;;5052718;28;20065;-75
2021/08/20 01:50:12;;;;;;;18.90;12.20;;;15.80;99.90;;;;;;5052826;28;20062;-75
2021/08/20 01:52:38;;;;;;;19.15;11.45;;;15.80;99.90;;;;;;5053557;28;20028;-74
2021/08/20 01:55:06;;;;;;;23.33;12.35;;;15.80;99.90;;;;;;5052793;28;20021;-74
2021/08/20 01:57:31;;;;;;;22.98;12.00;;;15.80;99.90;;;;;;5052962;28;20028;-74
2021/08/20 01:59:57;;;;;;;24.98;13.30;;;15.80;99.90;;;;;;5054015;28;20474;-74
2021/08/20 02:02:23;;;;;;;23.33;12.82;;;15.80;99.90;;;;;;5053449;28;20036;-74
2021/08/20 02:04:48;;;;;;;17.73;11.38;;;15.80;99.90;;;;;;5054176;28;20040;-75
2021/08/20 02:07:14;;;;;;;23.98;11.93;;;15.80;99.90;;;;;;5051739;28;20033;-73
2021/08/20 02:09:39;;;;;;;19.67;12.15;;;15.90;99.90;;;;;;5054475;28;20467;-74
2021/08/20 02:12:05;;;;;;;25.85;12.48;;;15.90;99.90;;;;;;5053601;28;20098;-74
2021/08/20 02:14:31;;;;;;;25.52;11.75;;;15.90;99.90;;;;;;5053611;28;20029;-75
2021/08/20 02:16:57;;;;;;;21.77;12.73;;;15.90;99.90;;;;;;5052312;28;20039;-75
2021/08/20 02:19:22;;;;;;;19.70;12.25;;;15.90;99.90;;;;;;5051232;28;20031;-76
2021/08/20 02:21:48;;;;;;;23.20;13.45;;;15.90;99.90;;;;;;5053979;28;20388;-75
2021/08/20 02:24:13;;;;;;;21.33;13.82;;;15.90;99.90;;;;;;5052525;28;20032;-74
2021/08/20 02:26:39;;;;;;;20.83;12.07;;;15.90;99.90;;;;;;5053434;28;20112;-74
2021/08/20 02:29:05;;;;;;;23.35;13.27;;;16.00;99.90;;;;;;5052269;28;20206;-73
2021/08/20 02:31:30;;;;;;;23.63;13.10;;;16.00;99.90;;;;;;5054347;28;20025;-72
2021/08/20 02:33:56;;;;;;;26.02;12.85;;;16.00;99.90;;;;;;5052255;28;20060;-74
2021/08/20 02:36:22;;;;;;;22.70;13.73;;;16.00;99.90;;;;;;5053626;28;20112;-75
2021/08/20 02:38:49;;;;;;;23.80;13.18;;;16.00;99.90;;;;;;5052900;28;20017;-75
2021/08/20 02:41:15;;;;;;;24.85;14.23;;;16.00;99.90;;;;;;5052229;28;20065;-76
2021/08/20 02:43:40;;;;;;;25.17;13.52;;;16.00;99.90;;;;;;5053263;28;20025;-73
2021/08/20 02:46:06;;;;;;;31.80;15.10;;;16.00;99.90;;;;;;5051908;28;20032;-73
2021/08/20 02:48:32;;;;;;;25.92;14.07;;;16.10;99.90;;;;;;5052104;28;20037;-75
2021/08/20 02:50:58;;;;;;;28.98;15.15;;;16.10;99.90;;;;;;5051054;28;20361;-75
2021/08/20 02:53:23;;;;;;;32.70;15.93;;;16.10;99.90;;;;;;5053346;28;20017;-76
2021/08/20 02:55:49;;;;;;;24.95;14.60;;;16.10;99.90;;;;;;5049759;28;20037;-75
2021/08/20 02:58:15;;;;;;;25.65;14.10;;;16.10;99.90;;;;;;5050655;28;20377;-74
2021/08/20 03:00:40;;;;;;;24.27;14.55;;;16.10;99.90;;;;;;5048067;28;20044;-72
2021/08/20 03:03:06;;;;;;;20.45;12.77;;;16.10;99.90;;;;;;5050991;28;20036;-74
2021/08/20 03:05:32;;;;;;;20.35;12.75;;;16.20;99.90;;;;;;5052000;28;20428;-74
2021/08/20 03:07:57;;;;;;;26.67;15.00;;;16.20;99.90;;;;;;5046502;28;20485;-74
2021/08/20 03:10:23;;;;;;;23.27;14.15;;;16.20;99.90;;;;;;5045741;28;20098;-75
2021/08/20 03:12:49;;;;;;;22.95;13.23;;;16.20;99.90;;;;;;5049583;28;20021;-74
2021/08/20 03:15:14;;;;;;;22.70;12.60;;;16.20;99.90;;;;;;5050917;28;20025;-74
2021/08/20 03:17:40;;;;;;;20.92;13.05;;;16.20;99.90;;;;;;5052243;28;20381;-74
2021/08/20 03:20:07;;;;;;;23.13;13.85;;;16.20;99.90;;;;;;5051806;28;20025;-75
2021/08/20 03:22:33;;;;;;;23.65;13.25;;;16.30;99.90;;;;;;5051422;28;20025;-74
2021/08/20 03:24:59;;;;;;;24.42;12.98;;;16.30;99.90;;;;;;5052179;28;20021;-74
2021/08/20 03:27:24;;;;;;;25.77;13.25;;;16.30;99.90;;;;;;5051865;28;20443;-72
2021/08/20 03:29:50;;;;;;;27.70;13.80;;;16.30;99.90;;;;;;5053939;28;20017;-73
2021/08/20 03:32:16;;;;;;;20.63;12.98;;;16.30;99.90;;;;;;5053130;28;20078;-73
2021/08/20 03:34:41;;;;;;;28.45;14.38;;;16.30;99.90;;;;;;5051933;28;20381;-72
2021/08/20 03:37:07;;;;;;;21.60;12.77;;;16.30;99.90;;;;;;5050938;28;20021;-72
2021/08/20 03:39:33;;;;;;;26.92;13.63;;;16.30;99.90;;;;;;5051446;28;20033;-73
2021/08/20 03:41:58;;;;;;;26.35;14.93;;;16.30;99.90;;;;;;5067979;28;20099;-73
2021/08/20 03:44:24;;;;;;;26.05;13.90;;;16.30;99.90;;;;;;5051391;28;20041;-74
2021/08/20 03:46:49;;;;;;;27.75;14.63;;;16.30;99.90;;;;;;5062659;28;20492;-74
2021/08/20 03:49:15;;;;;;;23.95;13.73;;;16.30;99.90;;;;;;5048959;28;20032;-73
2021/08/20 03:51:41;;;;;;;29.52;14.73;;;16.20;99.90;;;;;;5053660;28;20147;-74
2021/08/20 03:54:06;;;;;;;26.65;14.10;;;16.20;99.90;;;;;;5052001;28;20416;-73
2021/08/20 03:56:32;;;;;;;28.67;15.52;;;16.30;99.90;;;;;;5053437;28;20029;-73
2021/08/20 03:58:58;;;;;;;25.88;14.75;;;16.30;99.90;;;;;;5054032;28;20375;-73
2021/08/20 04:01:24;;;;;;;29.60;16.38;;;16.30;99.90;;;;;;5056198;28;20044;-74
2021/08/20 04:03:50;;;;;;;25.83;14.50;;;16.30;99.90;;;;;;5067455;28;20045;-73
2021/08/20 04:06:16;;;;;;;26.48;14.70;;;16.30;99.90;;;;;;5068445;28;20029;-73
2021/08/20 04:08:41;;;;;;;26.70;14.05;;;16.30;99.90;;;;;;5083737;28;20048;-74
2021/08/20 04:11:11;;;;;;;22.85;12.95;;;16.30;99.90;;;;;;5065336;28;20034;-74
2021/08/20 04:13:38;;;;;;;26.20;13.93;;;16.30;99.90;;;;;;5069465;28;20028;-74
2021/08/20 04:16:04;;;;;;;26.45;14.50;;;16.40;99.90;;;;;;5066828;28;20013;-73
2021/08/20 04:18:29;;;;;;;27.83;15.00;;;16.40;99.90;;;;;;5068883;28;20047;-73
2021/08/20 04:20:55;;;;;;;30.67;15.60;;;16.40;99.90;;;;;;5073956;28;20036;-74
2021/08/20 04:23:21;;;;;;;31.55;14.77;;;16.40;99.90;;;;;;5075342;28;20044;-75
2021/08/20 04:25:46;;;;;;;29.85;14.93;;;16.40;99.90;;;;;;5075171;28;20024;-74
2021/08/20 04:28:12;;;;;;;31.08;14.40;;;16.40;99.90;;;;;;5070947;28;20032;-73
2021/08/20 04:30:38;;;;;;;25.92;14.73;;;16.40;99.90;;;;;;5075843;28;20025;-73
2021/08/20 04:33:03;;;;;;;31.63;14.80;;;16.40;99.90;;;;;;5075149;28;20011;-75
2021/08/20 04:35:29;;;;;;;26.05;14.82;;;16.50;99.90;;;;;;5072219;28;20040;-72
2021/08/20 04:37:55;;;;;;;29.70;15.40;;;16.50;99.90;;;;;;5062133;28;20112;-73
2021/08/20 04:40:21;;;;;;;24.95;14.63;;;16.50;99.90;;;;;;5059947;28;20474;-73
2021/08/20 04:42:47;;;;;;;31.05;15.45;;;16.50;99.90;;;;;;5058841;28;20025;-73
2021/08/20 04:45:15;;;;;;;29.65;15.05;;;16.50;99.90;;;;;;5056973;28;20123;-74
2021/08/20 04:47:42;;;;;;;27.05;14.23;;;16.50;99.90;;;;;;5056215;28;20056;-73
2021/08/20 04:50:08;;;;;;;28.45;14.52;;;16.50;99.90;;;;;;5055325;28;20047;-73
2021/08/20 04:52:34;;;;;;;31.00;15.57;;;16.50;99.90;;;;;;5056795;28;20033;-74
2021/08/20 04:55:00;;;;;;;24.48;13.25;;;16.50;99.90;;;;;;5056521;28;20090;-74
2021/08/20 04:57:25;;;;;;;27.70;15.68;;;16.60;99.90;;;;;;5050212;28;20559;-74
2021/08/20 04:59:51;;;;;;;28.80;14.90;;;16.60;99.90;;;;;;5050522;28;20469;-73
2021/08/20 05:02:17;;;;;;;28.23;14.95;;;16.60;99.90;;;;;;5053012;28;20524;-74
2021/08/20 05:04:43;;;;;;;23.92;14.23;;;16.60;99.90;;;;;;5052566;28;20024;-73
2021/08/20 05:07:08;;;;;;;29.48;15.43;;;16.60;99.90;;;;;;5047726;28;20042;-73
2021/08/20 05:09:34;;;;;;;28.70;14.00;;;16.60;99.90;;;;;;5043034;28;20029;-74
2021/08/20 05:12:01;;;;;;;33.08;15.75;;;16.60;99.90;;;;;;5050547;28;20057;-75
2021/08/20 05:14:27;;;;;;;29.83;14.88;;;16.60;99.90;;;;;;5053298;28;20017;-74
2021/08/20 05:16:53;;;;;;;22.10;13.15;;;16.60;99.90;;;;;;5055483;28;20033;-74
2021/08/20 05:19:18;;;;;;;24.85;13.85;;;16.60;99.90;;;;;;5055457;28;20067;-74
2021/08/20 05:21:44;;;;;;;22.80;13.68;;;16.60;99.90;;;;;;5054414;28;20428;-75
2021/08/20 05:24:10;;;;;;;32.03;14.68;;;16.60;99.90;;;;;;5053568;28;20040;-73
2021/08/20 05:26:36;;;;;;;30.85;13.80;;;16.60;99.90;;;;;;5053768;28;20503;-74
2021/08/20 05:29:01;;;;;;;29.58;14.25;;;16.70;99.90;;;;;;5053590;28;20095;-74
2021/08/20 05:31:27;;;;;;;23.67;13.32;;;16.70;99.90;;;;;;5055489;28;20362;-74
2021/08/20 05:33:52;;;;;;;23.60;12.90;;;16.70;99.90;;;;;;5055246;28;20389;-74
2021/08/20 05:36:18;;;;;;;26.27;13.55;;;16.70;99.90;;;;;;5053582;28;20091;-74
2021/08/20 05:38:44;;;;;;;25.88;13.85;;;16.70;99.90;;;;;;5054392;28;20044;-75
2021/08/20 05:41:09;;;;;;;26.30;14.02;;;16.80;99.90;;;;;;5053296;28;20048;-74
2021/08/20 05:43:35;;;;;;;24.75;13.07;;;16.80;99.90;;;;;;5054394;28;20151;-74
2021/08/20 05:46:01;;;;;;;27.52;14.02;;;16.90;99.90;;;;;;5054000;28;20028;-74
2021/08/20 05:48:26;;;;;;;28.88;13.48;;;17.00;99.90;;;;;;5058836;28;20064;-74
2021/08/20 05:50:52;;;;;;;28.48;12.45;;;17.10;99.90;;;;;;5054889;28;20108;-74
2021/08/20 05:53:18;;;;;;;25.60;12.80;;;17.20;99.90;;;;;;5055107;28;20079;-74
2021/08/20 05:55:43;;;;;;;24.58;12.32;;;17.20;99.90;;;;;;5053573;28;20112;-74
2021/08/20 05:58:09;;;;;;;28.75;14.02;;;17.20;99.90;;;;;;5051247;28;20443;-74
2021/08/20 06:00:35;;;;;;;26.88;12.25;;;17.30;99.90;;;;;;5052820;28;20033;-74
2021/08/20 06:03:00;;;;;;;25.38;13.38;;;17.30;99.90;;;;;;5054898;28;20029;-74
2021/08/20 06:05:26;;;;;;;22.52;12.07;;;17.30;99.90;;;;;;5053633;28;20044;-74
2021/08/20 06:07:52;;;;;;;25.30;13.07;;;17.30;99.90;;;;;;5052685;28;20436;-74
2021/08/20 06:10:18;;;;;;;26.42;14.25;;;17.30;99.90;;;;;;5053068;28;20497;-74
2021/08/20 06:12:44;;;;;;;22.70;12.82;;;17.30;99.90;;;;;;5052603;28;20076;-74
2021/08/20 06:15:11;;;;;;;28.55;13.82;;;17.30;99.90;;;;;;5054749;28;20031;-74
2021/08/20 06:17:37;;;;;;;21.33;12.50;;;17.50;99.90;;;;;;5050751;28;20479;-75
2021/08/20 06:20:04;;;;;;;26.17;12.32;;;17.60;99.90;;;;;;5052522;28;20017;-74
2021/08/20 06:22:29;;;;;;;25.52;12.73;;;17.80;99.90;;;;;;5051684;28;20048;-74
2021/08/20 06:24:55;;;;;;;28.58;12.65;;;17.90;99.90;;;;;;5052044;28;20485;-74
2021/08/20 06:27:22;;;;;;;26.42;12.63;;;18.00;99.90;;;;;;5048273;28;20033;-75
2021/08/20 06:29:47;;;;;;;23.08;12.70;;;18.00;99.90;;;;;;5051204;28;20058;-74
2021/08/20 06:32:13;;;;;;;24.65;12.38;;;17.90;99.90;;;;;;5052040;28;20033;-75
2021/08/20 06:34:39;;;;;;;32.17;13.13;;;17.90;99.90;;;;;;5053452;28;20507;-74
2021/08/20 06:37:05;;;;;;;26.63;12.32;;;17.80;99.90;;;;;;5053017;28;20025;-75
2021/08/20 06:39:31;;;;;;;21.88;12.43;;;17.90;99.90;;;;;;5052542;28;20074;-75
2021/08/20 06:41:57;;;;;;;22.65;12.27;;;17.80;99.90;;;;;;5051821;28;20439;-74
2021/08/20 06:44:25;;;;;;;29.98;12.73;;;17.80;99.90;;;;;;5052704;28;20488;-75
2021/08/20 06:46:50;;;;;;;25.10;12.50;;;17.90;99.90;;;;;;5052349;28;20505;-75
2021/08/20 06:49:16;;;;;;;22.60;11.77;;;18.00;99.90;;;;;;5053420;28;20055;-74
2021/08/20 06:51:42;;;;;;;23.10;11.82;;;18.10;99.90;;;;;;5053145;28;20021;-74
2021/08/20 06:54:07;;;;;;;26.02;12.35;;;18.20;99.90;;;;;;5053422;28;20090;-73
2021/08/20 06:56:33;;;;;;;24.58;12.95;;;18.30;99.90;;;;;;5052536;28;20083;-74
2021/08/20 06:58:58;;;;;;;24.33;12.18;;;18.40;99.90;;;;;;5052209;28;20017;-74
2021/08/20 07:01:27;;;;;;;21.25;10.88;;;18.40;99.90;;;;;;5052019;28;20501;-73
2021/08/20 07:03:55;;;;;;;19.73;11.00;;;18.40;99.90;;;;;;5052198;28;20029;-73
2021/08/20 07:06:23;;;;;;;22.80;11.73;;;18.60;99.90;;;;;;5052730;28;21128;-74
2021/08/20 07:08:50;;;;;;;21.80;12.38;;;18.70;99.90;;;;;;5052090;28;20037;-73
2021/08/20 07:11:16;;;;;;;16.10;8.57;;;18.70;99.90;;;;;;5051171;28;20009;-75
2021/08/20 07:13:42;;;;;;;21.15;11.02;;;18.80;99.90;;;;;;5051565;28;20033;-74
2021/08/20 07:16:08;;;;;;;20.90;11.48;;;18.80;99.90;;;;;;5051863;28;20061;-74
2021/08/20 07:18:37;;;;;;;20.92;12.10;;;18.80;99.90;;;;;;5051724;28;20044;-74
2021/08/20 07:21:04;;;;;;;20.15;10.90;;;18.80;99.90;;;;;;5048669;28;20029;-73
2021/08/20 07:23:30;;;;;;;21.10;11.07;;;19.00;99.90;;;;;;5050140;28;21639;-76
2021/08/20 07:25:58;;;;;;;19.40;11.85;;;19.00;99.90;;;;;;5050465;28;20112;-74
2021/08/20 07:28:23;;;;;;;20.20;11.45;;;19.00;99.90;;;;;;5052400;28;20044;-74
2021/08/20 07:30:49;;;;;;;23.67;11.18;;;19.20;99.90;;;;;;5052515;28;20025;-74
2021/08/20 07:33:15;;;;;;;18.08;11.30;;;19.50;99.90;;;;;;5052472;28;20178;-73
2021/08/20 07:35:40;;;;;;;13.05;9.35;;;19.70;99.90;;;;;;5052300;28;20025;-75
2021/08/20 07:38:06;;;;;;;14.63;10.10;;;19.90;99.90;;;;;;5046096;28;20032;-74
2021/08/20 07:40:31;;;;;;;18.45;10.43;;;20.10;99.90;;;;;;5045016;28;20114;-73
2021/08/20 07:42:57;;;;;;;17.35;10.00;;;20.30;99.90;;;;;;5051312;28;20466;-73
2021/08/20 07:45:23;;;;;;;13.38;9.82;;;20.50;99.90;;;;;;5050690;28;20037;-74
2021/08/20 07:47:50;;;;;;;13.60;9.40;;;20.40;99.90;;;;;;5048127;28;20041;-75
2021/08/20 07:50:16;;;;;;;13.13;9.57;;;20.30;99.90;;;;;;5049166;28;20501;-76
2021/08/20 07:52:44;;;;;;;17.25;10.50;;;20.00;99.90;;;;;;5050118;28;20021;-74
2021/08/20 07:55:10;;;;;;;;;;;20.00;99.90;;;;;;5052833;28;20473;-76
2021/08/20 07:57:45;;;;;;;14.15;9.43;;;20.00;99.90;;;;;;5063771;28;20050;-74
2021/08/20 08:00:11;;;;;;;16.70;9.75;;;20.00;99.90;;;;;;5047656;28;20413;-73
2021/08/20 08:02:37;;;;;;;17.98;10.68;;;20.00;99.90;;;;;;5062714;28;20049;-71
2021/08/20 08:05:03;;;;;;;16.50;9.95;;;19.90;99.90;;;;;;5050048;28;20428;-73
2021/08/20 08:07:28;;;;;;;18.15;11.07;;;19.90;99.90;;;;;;5048250;28;20033;-73
2021/08/20 08:09:54;;;;;;;19.17;10.80;;;19.80;99.90;;;;;;5049500;28;20021;-73
2021/08/20 08:12:20;;;;;;;17.88;10.90;;;19.80;99.90;;;;;;5064241;28;20041;-76
2021/08/20 08:15:00;;;;;;;16.75;10.25;;;19.80;99.90;;;;;;5068816;28;20053;-75
2021/08/20 08:17:26;;;;;;;18.45;10.63;;;19.70;99.90;;;;;;5066161;28;20115;-75
2021/08/20 08:19:52;;;;;;;17.10;10.48;;;19.80;99.90;;;;;;5065963;28;20028;-74
2021/08/20 08:22:17;;;;;;;15.98;9.68;;;19.90;99.90;;;;;;5067785;28;20036;-76
2021/08/20 08:24:43;;;;;;;19.20;10.90;;;19.90;99.90;;;;;;5066889;28;20029;-74
2021/08/20 08:27:09;;;;;;;15.05;10.02;;;20.00;99.90;;;;;;5063170;28;20041;-74
2021/08/20 08:29:34;;;;;;;18.00;9.80;;;20.00;99.90;;;;;;5067409;28;20021;-74
2021/08/20 08:32:00;;;;;;;17.80;10.52;;;19.90;99.90;;;;;;5060483;28;20029;-74
2021/08/20 08:34:26;;;;;;;20.15;10.00;;;20.00;99.90;;;;;;5059998;28;20065;-75
2021/08/20 08:36:51;;;;;;;14.30;10.73;;;20.00;99.90;;;;;;5069339;28;20032;-74
2021/08/20 08:39:17;;;;;;;15.38;9.75;;;20.20;99.90;;;;;;5070643;28;20025;-75
2021/08/20 08:41:43;;;;;;;14.18;10.13;;;20.20;99.90;;;;;;5068878;28;20036;-76
2021/08/20 08:44:09;;;;;;;12.02;9.23;;;20.30;99.90;;;;;;5068130;28;20009;-76
2021/08/20 08:46:37;;;;;;;15.05;10.00;;;20.30;99.90;;;;;;5071747;28;20033;-74
2021/08/20 08:49:06;;;;;;;;;;;20.30;99.90;;;;;;5071280;28;20037;-75
2021/08/20 08:51:32;;;;;;;17.70;8.18;;;20.40;99.90;;;;;;5079937;28;19919;-75
2021/08/20 08:53:57;;;;;;;13.57;8.52;;;20.40;99.90;;;;;;5089130;28;20029;-75
2021/08/20 08:56:24;;;;;;;13.02;8.00;;;20.60;99.90;;;;;;5069264;28;20033;-76
2021/08/20 08:58:50;;;;;;;9.63;6.88;;;21.00;99.90;;;;;;5072731;28;20033;-76
2021/08/20 09:01:34;;;;;;;10.60;6.20;;;21.50;99.90;;;;;;5071407;28;20063;-74
2021/08/20 09:04:10;;;;;;;7.72;4.93;;;22.00;99.90;;;;;;5064980;28;20090;-74
2021/08/20 09:06:50;;;;;;;9.40;6.35;;;22.40;99.90;;;;;;5060394;28;20076;-73
2021/08/20 09:09:20;;;;;;;11.40;7.72;;;22.60;99.90;;;;;;5057298;28;20021;-75
2021/08/20 09:11:51;;;;;;;10.38;6.75;;;22.40;99.90;;;;;;5059738;28;20024;-70
2021/08/20 09:14:17;;;;;;;10.85;6.50;;;22.10;99.90;;;;;;5055697;28;20033;-73
2021/08/20 09:16:47;;;;;;;7.77;6.23;;;21.80;99.90;;;;;;5058896;28;20055;-73
2021/08/20 09:19:19;;;;;;;10.23;6.60;;;21.60;99.90;;;;;;5072433;28;20033;-74
2021/08/20 09:22:09;;;;;;;15.23;6.38;;;21.60;99.90;;;;;;5059495;28;20021;-73
2021/08/20 09:24:36;;;;;;;10.75;5.32;;;22.00;99.90;;;;;;5063780;28;20075;-74
2021/08/20 09:27:14;;;;;;;6.53;5.47;;;22.40;99.90;;;;;;5056244;28;20044;-74
2021/08/20 09:30:14;;;;;;;10.07;5.10;;;22.90;99.90;;;;;;5057231;28;20271;-74
2021/08/20 09:32:44;;;;;;;11.38;5.22;;;23.20;99.90;;;;;;5053363;28;20041;-74
2021/08/20 09:35:10;;;;;;;17.65;6.07;;;23.40;99.90;;;;;;5059245;28;20039;-73
2021/08/20 09:37:36;;;;;;;6.75;5.50;;;23.40;99.90;;;;;;5060939;28;20120;-73
2021/08/20 09:40:23;;;;;;;11.37;5.40;;;23.10;99.90;;;;;;5060064;28;20029;-74
2021/08/20 09:42:48;;;;;;;12.73;6.10;;;22.80;99.90;;;;;;5053882;28;20280;-74
2021/08/20 09:45:22;;;;;;;8.43;5.85;;;22.50;99.90;;;;;;5055088;28;20116;-74
2021/08/20 09:47:53;;;;;;;8.32;7.18;;;22.40;99.90;;;;;;5053163;28;20064;-73
2021/08/20 09:50:21;;;;;;;7.53;6.10;;;22.30;99.90;;;;;;5072354;28;20090;-74
2021/08/20 09:52:47;;;;;;;;;;;22.50;99.90;;;;;;5074262;28;20040;-73
2021/08/20 09:55:33;;;;;;;10.57;6.10;;;22.60;99.90;;;;;;5067887;28;19908;-73
2021/08/20 09:58:00;;;;;;;10.38;6.22;;;22.90;99.90;;;;;;5073223;28;20381;-72
2021/08/20 10:00:32;;;;;;;6.93;5.03;;;23.30;99.90;;;;;;5049377;28;20045;-73
2021/08/20 10:02:57;;;;;;;8.35;5.50;;;23.80;99.90;;;;;;5060216;28;20115;-74
2021/08/20 10:05:24;;;;;;;9.60;5.22;;;24.30;99.90;;;;;;5073474;28;20132;-73
2021/08/20 10:07:51;;;;;;;5.60;5.03;;;24.70;99.90;;;;;;5072552;28;20123;-72
2021/08/20 10:10:18;;;;;;;5.32;4.63;;;24.90;99.90;;;;;;5072861;28;20586;-74
2021/08/20 10:12:44;;;;;;;7.07;4.70;;;24.90;99.90;;;;;;5073101;28;20024;-73
2021/08/20 10:15:10;;;;;;;7.88;4.93;;;24.90;99.90;;;;;;5070315;28;20382;-73
2021/08/20 10:17:36;;;;;;;5.05;4.45;;;24.80;99.90;;;;;;5071888;28;20070;-72
2021/08/20 10:20:03;;;;;;;4.22;3.47;;;24.60;99.90;;;;;;5072208;28;20500;-72
2021/08/20 10:22:30;;;;;;;6.95;3.63;;;24.60;99.90;;;;;;5053413;28;20477;-73
2021/08/20 10:24:57;;;;;;;4.47;3.50;;;24.50;99.90;;;;;;5054859;28;20481;-73
2021/08/20 10:27:23;;;;;;;5.35;3.67;;;24.50;99.90;;;;;;5054995;28;20048;-73
2021/08/20 10:29:52;;;;;;;3.90;3.53;;;24.40;99.90;;;;;;5053318;28;20025;-72
2021/08/20 10:32:18;;;;;;;3.92;2.97;;;24.60;99.90;;;;;;5054722;28;20041;-74
2021/08/20 10:34:44;;;;;;;5.15;3.33;;;24.80;99.90;;;;;;5055202;28;20021;-74
2021/08/20 10:37:22;;;;;;;5.40;3.53;;;24.80;99.90;;;;;;5054332;28;20035;-74
2021/08/20 10:39:49;;;;;;;8.30;3.67;;;24.60;99.90;;;;;;5054461;28;20036;-73
2021/08/20 10:42:16;;;;;;;6.28;3.70;;;24.80;99.90;;;;;;5053178;28;20048;-73
2021/08/20 10:44:45;;;;;;;8.32;3.53;;;24.80;99.90;;;;;;5052866;28;20040;-75
2021/08/20 10:47:27;;;;;;;3.95;3.50;;;24.70;99.90;;;;;;5052320;28;20046;-74
2021/08/20 10:50:11;;;;;;;5.60;3.20;;;24.80;99.90;;;;;;5053171;28;20035;-74
2021/08/20 10:52:42;;;;;;;6.15;3.20;;;24.70;99.90;;;;;;5054158;28;20354;-74
2021/08/20 10:55:11;;;;;;;6.07;3.90;;;24.50;99.90;;;;;;5052740;28;20063;-74
2021/08/20 10:57:39;;;;;;;6.47;3.58;;;24.20;99.90;;;;;;5052797;28;20067;-73
2021/08/20 11:00:22;;;;;;;5.80;3.92;;;24.00;99.90;;;;;;5051653;28;20091;-75
2021/08/20 11:02:51;;;;;;;7.22;3.28;;;23.80;99.90;;;;;;5042017;28;20104;-73
2021/08/20 11:05:19;;;;;;;6.35;3.30;;;23.70;99.90;;;;;;5052685;28;20025;-72
2021/08/20 11:07:44;;;;;;;4.53;3.85;;;23.80;99.90;;;;;;5053521;28;20039;-72
2021/08/20 11:10:10;;;;;;;4.68;4.20;;;24.00;99.90;;;;;;5053510;28;20455;-72
2021/08/20 11:12:39;;;;;;;7.95;3.50;;;24.00;99.90;;;;;;5051742;28;20485;-77
2021/08/20 11:15:21;;;;;;;9.55;3.17;;;24.20;99.90;;;;;;5052995;28;20025;-73
2021/08/20 11:17:57;;;;;;;8.50;3.20;;;24.20;99.90;;;;;;5052712;28;20037;-73
2021/08/20 11:20:24;;;;;;;4.75;3.17;;;24.10;99.90;;;;;;5047145;28;20036;-75
2021/08/20 11:23:14;;;;;;;5.25;3.00;;;23.90;99.90;;;;;;5069406;28;20037;-74
2021/08/20 11:25:57;;;;;;;3.90;3.15;;;23.70;99.90;;;;;;5051238;28;20036;-75
2021/08/20 11:28:34;;;;;;;4.80;3.40;;;23.80;99.90;;;;;;5069477;28;20033;-74
2021/08/20 11:31:08;;;;;;;3.10;2.63;;;23.90;99.90;;;;;;5051030;28;20035;-75
2021/08/20 11:33:40;;;;;;;3.55;2.40;;;24.00;99.90;;;;;;5051585;28;20052;-72
2021/08/20 11:36:13;;;;;;;2.65;1.75;;;24.10;99.90;;;;;;5053033;28;20024;-74
2021/08/20 11:38:42;;;;;;;2.33;1.80;;;24.20;99.90;;;;;;5051434;28;20090;-74
2021/08/20 11:41:25;;;;;;;7.80;3.88;;;24.40;99.90;;;;;;5052788;28;20036;-75
2021/08/20 11:43:53;;;;;;;7.10;4.20;;;24.40;99.90;;;;;;5051504;28;20028;-74
2021/08/20 11:46:20;;;;;;;7.72;4.32;;;24.20;99.90;;;;;;5052044;28;20082;-73
2021/08/20 11:48:54;;;;;;;6.30;4.50;;;24.00;99.90;;;;;;5052979;28;20128;-75
2021/08/20 11:51:34;;;;;;;5.18;4.68;;;24.00;99.90;;;;;;5053497;28;20029;-75
2021/08/20 11:54:05;;;;;;;7.47;3.83;;;23.90;99.90;;;;;;5052505;28;20037;-72
2021/08/20 11:56:31;;;;;;;5.82;3.20;;;23.90;99.90;;;;;;5053369;28;20466;-75
2021/08/20 11:59:07;;;;;;;3.57;3.00;;;23.90;99.90;;;;;;5052858;28;20017;-72
2021/08/20 12:01:34;;;;;;;5.20;3.72;;;23.90;99.90;;;;;;5051733;28;20028;-72
2021/08/20 12:04:00;;;;;;;5.50;3.22;;;23.80;99.90;;;;;;5051645;28;20397;-73
2021/08/20 12:06:27;;;;;;;3.85;3.38;;;23.80;99.90;;;;;;5052437;28;20025;-74
2021/08/20 12:08:58;;;;;;;4.95;3.25;;;23.70;99.90;;;;;;5051821;28;20436;-73
2021/08/20 12:11:29;;;;;;;8.10;2.50;;;23.70;99.90;;;;;;5052603;28;20029;-72
2021/08/20 12:13:56;;;;;;;5.22;2.78;;;23.60;99.90;;;;;;5044869;28;20024;-74
2021/08/20 12:16:34;;;;;;;5.72;2.97;;;23.40;99.90;;;;;;5051696;28;20093;-74
2021/08/20 12:19:11;;;;;;;5.07;3.63;;;23.20;99.90;;;;;;5052034;28;20021;-72
2021/08/20 12:21:37;;;;;;;5.38;3.10;;;23.20;99.90;;;;;;5053790;28;20032;-74
2021/08/20 12:24:07;;;;;;;3.50;2.97;;;23.00;99.90;;;;;;5056240;28;20484;-75
2021/08/20 12:26:33;;;;;;;11.65;5.10;;;23.00;99.90;;;;;;5056932;28;20044;-76
2021/08/20 12:29:15;;;;;;;4.72;4.10;;;22.90;99.90;;;;;;5055293;28;20033;-75
2021/08/20 12:31:54;;;;;;;7.28;4.18;;;22.80;99.90;;;;;;5057992;28;20021;-74
2021/08/20 12:34:35;;;;;;;5.88;4.43;;;22.60;99.90;;;;;;5052241;28;20028;-76